Time;durP1;ratioP1;P1;durP2;ratioP2;P2;SDS_P1;SDS_P2;PMS_P1;PMS_P2;Temp;Humidity;BMP_temperature;BMP_pressure;BME280_temperature;BME280_humidity;BME280_pressure;Samples;Min_cycle;Max_cycle;Signal;HPM_P1;HPM_P2
2022/04/16 00:01:22;;;;;;;7.45;3.80;;;;;;;8.63;88.21;101489.00;20971151;28;20045;-66
2022/04/16 00:11:24;;;;;;;5.90;3.47;;;;;;;8.50;89.13;101487.13;20982737;28;20036;-66
2022/04/16 00:21:25;;;;;;;5.97;3.38;;;;;;;8.27;90.77;101492.94;20986965;28;20044;-66
2022/04/16 00:31:28;;;;;;;8.65;3.63;;;;;;;8.17;90.86;101496.31;20985616;28;20041;-65
2022/04/16 00:41:29;;;;;;;5.30;3.28;;;;;;;8.10;90.58;101500.59;20981894;28;20457;-65
2022/04/16 00:51:31;;;;;;;6.70;3.92;;;;;;;7.85;92.01;101496.75;20984522;28;20493;-65
2022/04/16 01:01:33;;;;;;;7.50;4.55;;;;;;;7.86;91.87;101493.34;20983693;28;20040;-66
2022/04/16 01:11:34;;;;;;;6.93;4.30;;;;;;;7.63;93.60;101489.53;20983390;28;20193;-66
2022/04/16 01:21:36;;;;;;;7.90;4.22;;;;;;;7.54;94.22;101490.28;20981401;28;20040;-66
2022/04/16 01:31:38;;;;;;;7.32;4.05;;;;;;;7.53;94.10;101487.66;20981398;28;20040;-66
2022/04/16 01:41:40;;;;;;;7.75;4.60;;;;;;;7.37;95.25;101496.97;20980824;28;20044;-66
2022/04/16 01:51:42;;;;;;;7.95;4.90;;;;;;;7.35;95.59;101503.91;20980231;28;20044;-67
2022/04/16 02:01:45;;;;;;;7.85;4.78;;;;;;;7.17;96.28;101494.94;20979113;28;20091;-66
2022/04/16 02:11:47;;;;;;;9.75;4.95;;;;;;;7.02;97.49;101509.44;20976586;28;20180;-66
2022/04/16 02:21:48;;;;;;;9.00;5.05;;;;;;;6.93;98.04;101497.13;20977415;28;20053;-68
2022/04/16 02:31:50;;;;;;;10.88;5.10;;;;;;;6.93;97.68;101503.22;20976058;28;20106;-68
2022/04/16 02:41:52;;;;;;;8.80;5.03;;;;;;;6.79;98.18;101506.44;20975799;28;20048;-65
2022/04/16 02:51:54;;;;;;;9.48;5.35;;;;;;;6.78;98.59;101505.56;20975388;28;20448;-65
2022/04/16 03:01:56;;;;;;;9.43;5.20;;;;;;;6.69;98.50;101510.59;20974377;28;20040;-65
2022/04/16 03:11:58;;;;;;;11.60;6.18;;;;;;;6.59;99.64;101524.31;20973839;28;20410;-65
2022/04/16 03:22:00;;;;;;;12.68;5.63;;;;;;;6.49;99.82;101515.44;20973031;28;20048;-65
2022/04/16 03:32:01;;;;;;;9.15;5.68;;;;;;;6.35;100.00;101520.38;20971761;28;20060;-65
2022/04/16 03:42:03;;;;;;;10.10;5.88;;;;;;;6.30;100.00;101527.22;20971015;28;20044;-65
2022/04/16 03:52:05;;;;;;;9.40;5.25;;;;;;;6.26;100.00;101521.94;20972144;28;20098;-66
2022/04/16 04:02:07;;;;;;;9.68;6.18;;;;;;;6.29;100.00;101524.59;20970694;28;20215;-67
2022/04/16 04:12:10;;;;;;;12.02;6.40;;;;;;;6.16;100.00;101529.53;20971354;28;20049;-66
2022/04/16 04:22:14;;;;;;;10.85;6.38;;;;;;;6.00;100.00;101552.59;20970336;28;20040;-65
2022/04/16 04:32:16;;;;;;;10.38;5.95;;;;;;;6.07;100.00;101559.69;20969630;28;20107;-67
2022/04/16 04:42:31;;;;;;;10.38;6.22;;;;;;;5.93;100.00;101566.31;20969442;28;20048;-66
2022/04/16 04:52:35;;;;;;;13.45;6.53;;;;;;;5.95;100.00;101564.63;20972541;28;20170;-67
2022/04/16 05:02:40;;;;;;;11.67;7.53;;;;;;;5.99;100.00;101564.72;20983902;28;20074;-66
2022/04/16 05:12:42;;;;;;;9.75;6.40;;;;;;;6.27;100.00;101553.16;20979960;28;20044;-66
2022/04/16 05:22:43;;;;;;;11.40;6.13;;;;;;;6.56;100.00;101577.16;20984645;28;20041;-66
2022/04/16 05:32:47;;;;;;;8.55;5.38;;;;;;;6.77;100.00;101581.03;20981318;28;20689;-66
2022/04/16 05:42:49;;;;;;;9.82;6.03;;;;;;;7.07;100.00;101575.50;21001917;28;20106;-66
2022/04/16 05:52:52;;;;;;;9.15;5.38;;;;;;;7.36;99.84;101589.88;20987187;28;20529;-66
2022/04/16 06:02:55;;;;;;;12.55;5.90;;;;;;;7.54;99.03;101584.09;20989288;28;20464;-65
2022/04/16 06:12:56;;;;;;;10.05;5.50;;;;;;;8.01;96.88;101603.91;20982712;28;20529;-67
2022/04/16 06:22:58;;;;;;;10.15;5.68;;;;;;;8.33;95.84;101605.19;20980935;28;20112;-67
2022/04/16 06:32:59;;;;;;;10.02;5.45;;;;;;;8.57;94.49;101619.44;20979597;28;20048;-67
2022/04/16 06:43:01;;;;;;;14.32;5.60;;;;;;;8.96;92.16;101617.31;20975656;28;20493;-68
2022/04/16 06:53:02;;;;;;;8.13;4.85;;;;;;;9.32;90.74;101621.13;20974773;28;20053;-65
2022/04/16 07:03:07;;;;;;;8.45;5.20;;;;;;;9.69;87.17;101619.69;20971221;28;20037;-65
2022/04/16 07:13:08;;;;;;;9.60;5.23;;;;;;;10.15;85.58;101627.81;20968356;28;20041;-65
2022/04/16 07:23:10;;;;;;;10.65;5.75;;;;;;;10.06;85.99;101639.97;20967835;28;20055;-65
2022/04/16 07:33:12;;;;;;;8.25;4.57;;;;;;;10.39;85.39;101629.72;20968193;28;20467;-65
2022/04/16 07:43:15;;;;;;;8.88;4.80;;;;;;;10.58;83.67;101633.31;20968592;28;20048;-65
2022/04/16 07:53:17;;;;;;;8.15;4.90;;;;;;;10.61;83.74;101642.94;20968266;28;20048;-65
2022/04/16 08:03:18;;;;;;;9.50;5.35;;;;;;;11.05;81.06;101643.94;20969602;28;20045;-65
2022/04/16 08:13:20;;;;;;;10.57;4.65;;;;;;;11.41;78.09;101668.47;20968312;28;20049;-64
2022/04/16 08:23:21;;;;;;;12.55;4.50;;;;;;;11.70;77.50;101659.75;20968213;28;20048;-66
2022/04/16 08:33:23;;;;;;;9.15;4.50;;;;;;;11.74;70.10;101667.63;20980423;28;20044;-66
2022/04/16 08:43:25;;;;;;;8.15;4.15;;;;;;;12.22;67.06;101676.34;20982528;28;20041;-66
2022/04/16 08:53:27;;;;;;;8.05;4.47;;;;;;;11.96;67.03;101672.88;20981913;28;20044;-66
2022/04/16 09:03:33;;;;;;;7.22;4.07;;;;;;;12.18;65.63;101674.59;20980426;28;20547;-66
2022/04/16 09:13:34;;;;;;;7.53;4.15;;;;;;;12.78;65.58;101674.41;20981448;28;20052;-68
2022/04/16 09:23:36;;;;;;;6.60;3.80;;;;;;;13.19;61.42;101668.06;20980459;28;20040;-69
2022/04/16 09:33:39;;;;;;;7.63;4.22;;;;;;;13.48;59.49;101660.88;20977484;28;20052;-68
2022/04/16 09:43:41;;;;;;;5.53;3.03;;;;;;;13.73;59.55;101663.31;20976995;28;20052;-66
2022/04/16 09:53:43;;;;;;;7.72;4.03;;;;;;;12.64;61.61;101674.44;20977292;28;20040;-66
2022/04/16 10:03:46;;;;;;;7.00;3.33;;;;;;;12.61;60.76;101676.25;20975840;28;20489;-67
2022/04/16 10:13:58;;;;;;;6.97;3.42;;;;;;;13.10;57.40;101682.13;20957231;28;20056;-67
2022/04/16 10:24:00;;;;;;;7.95;3.65;;;;;;;12.97;57.36;101694.47;20954276;28;20517;-68
2022/04/16 10:34:08;;;;;;;6.50;3.55;;;;;;;13.30;56.14;101687.31;20952224;28;20045;-66
2022/04/16 10:44:09;;;;;;;5.00;2.72;;;;;;;13.62;54.09;101681.81;20967652;28;20044;-67
2022/04/16 10:54:14;;;;;;;4.97;2.20;;;;;;;13.06;55.38;101683.91;20972448;28;20134;-68
2022/04/16 11:04:15;;;;;;;4.97;2.63;;;;;;;13.25;54.65;101687.34;20971413;28;20045;-68
2022/04/16 11:14:18;;;;;;;8.20;3.22;;;;;;;13.48;53.87;101681.06;20971090;28;20044;-67
2022/04/16 11:24:19;;;;;;;5.03;2.78;;;;;;;14.08;51.73;101660.34;20971137;28;20594;-70
2022/04/16 11:34:21;;;;;;;4.72;2.28;;;;;;;14.88;46.46;101665.59;20966954;28;20054;-70
2022/04/16 11:44:40;;;;;;;4.78;2.58;;;;;;;14.79;47.65;101648.13;20969576;28;20055;-70
2022/04/16 11:54:43;;;;;;;5.22;1.90;;;;;;;14.78;48.32;101661.34;20965952;28;20412;-69
2022/04/16 12:04:44;;;;;;;5.32;2.15;;;;;;;14.32;46.26;101657.47;20975740;28;20045;-70
2022/04/16 12:14:51;;;;;;;2.85;1.60;;;;;;;14.22;46.82;101658.44;20985729;28;20048;-70
2022/04/16 12:24:53;;;;;;;3.97;1.50;;;;;;;14.62;44.58;101658.91;20983945;28;20040;-70
2022/04/16 12:34:54;;;;;;;3.45;1.58;;;;;;;14.44;44.88;101656.44;20985914;28;20679;-70
2022/04/16 12:44:56;;;;;;;5.45;2.03;;;;;;;14.37;42.62;101644.22;20983725;28;20048;-70
2022/04/16 12:54:59;;;;;;;5.13;1.60;;;;;;;14.41;42.34;101637.16;20982998;28;20087;-68
2022/04/16 13:05:01;;;;;;;4.25;1.80;;;;;;;14.67;39.66;101636.88;20982178;28;20044;-68
2022/04/16 13:15:03;;;;;;;4.93;1.75;;;;;;;14.49;42.12;101620.41;20980852;28;20482;-69
2022/04/16 13:25:06;;;;;;;5.13;2.20;;;;;;;14.81;41.09;101608.56;20980204;28;20040;-69
2022/04/16 13:35:08;;;;;;;4.68;2.33;;;;;;;14.79;39.35;101605.06;20980556;28;20040;-68
2022/04/16 13:45:11;;;;;;;4.47;2.30;;;;;;;14.91;39.71;101589.09;20977786;28;20036;-69
2022/04/16 13:55:12;;;;;;;5.13;2.40;;;;;;;14.96;39.54;101568.78;20977294;28;20052;-67
2022/04/16 14:15:35;;;;;;;5.65;2.70;;;;;;;14.99;38.96;101579.28;20974352;28;20044;-67
2022/04/16 14:25:38;;;;;;;4.43;2.10;;;;;;;15.06;35.30;101573.03;20975066;28;20090;-67
2022/04/16 14:35:39;;;;;;;5.88;2.47;;;;;;;15.10;34.58;101579.13;20971005;28;20410;-68
2022/04/16 14:45:44;;;;;;;4.03;2.00;;;;;;;15.12;31.34;101550.94;20974520;28;20045;-66
2022/04/16 14:55:46;;;;;;;4.68;2.58;;;;;;;15.12;31.40;101567.66;20973180;28;20640;-66
2022/04/16 15:05:48;;;;;;;5.15;2.45;;;;;;;15.06;32.01;101577.44;20969069;28;20547;-66
2022/04/16 15:15:49;;;;;;;5.47;2.47;;;;;;;14.93;29.26;101571.47;20970239;28;20060;-66
2022/04/16 15:25:51;;;;;;;4.78;2.30;;;;;;;15.01;29.58;101574.88;20970542;28;20052;-66
2022/04/16 15:35:53;;;;;;;5.07;2.60;;;;;;;14.89;29.92;101585.59;20965790;28;20045;-66
2022/04/16 15:45:54;;;;;;;6.82;2.67;;;;;;;14.73;29.78;101587.56;20968017;28;20064;-65
2022/04/16 15:55:56;;;;;;;4.85;2.63;;;;;;;14.68;28.67;101580.63;20969795;28;20072;-65
2022/04/16 16:05:59;;;;;;;6.65;2.92;;;;;;;14.89;29.68;101580.31;20968552;28;20049;-65
2022/04/16 16:16:00;;;;;;;23.30;18.33;;;;;;;14.73;27.25;101581.44;20967894;28;20048;-65
2022/04/16 16:26:09;;;;;;;4.00;1.90;;;;;;;14.66;24.94;101577.13;20967342;28;20127;-65
2022/04/16 16:36:10;;;;;;;6.07;1.85;;;;;;;14.66;23.23;101571.84;20967140;28;20040;-65
2022/04/16 16:46:14;;;;;;;3.47;1.60;;;;;;;14.71;23.54;101573.56;20963361;28;20051;-65
2022/04/16 16:56:16;;;;;;;4.03;1.53;;;;;;;14.59;23.07;101568.44;20981991;28;20040;-65
2022/04/16 17:06:18;;;;;;;30.30;14.95;;;;;;;14.56;23.30;101573.75;20979951;28;20452;-65
2022/04/16 17:26:39;;;;;;;5.05;1.48;;;;;;;14.14;23.36;101590.94;20977606;28;20048;-65
2022/04/16 17:36:42;;;;;;;4.97;1.40;;;;;;;13.76;24.30;101595.72;20978833;28;20099;-65
2022/04/16 17:46:43;;;;;;;3.17;1.55;;;;;;;13.47;25.32;101600.38;20978860;28;20043;-65
2022/04/16 17:56:45;;;;;;;5.78;1.50;;;;;;;13.11;26.24;101605.00;20977303;28;20063;-66
2022/04/16 18:06:47;;;;;;;4.95;1.60;;;;;;;12.91;26.82;101601.63;20976017;28;20040;-64
2022/04/16 18:16:50;;;;;;;4.68;1.92;;;;;;;12.64;27.96;101619.28;20973736;28;20098;-66
2022/04/16 18:26:52;;;;;;;3.90;1.90;;;;;;;12.38;28.99;101629.03;20950159;28;20056;-66
2022/04/16 18:36:54;;;;;;;3.67;2.03;;;;;;;12.13;30.09;101651.88;20952686;28;20417;-66
2022/04/16 18:46:59;;;;;;;5.95;2.30;;;;;;;11.91;30.35;101653.63;20951904;28;20048;-67
2022/04/16 18:57:00;;;;;;;4.40;2.20;;;;;;;11.74;31.14;101672.88;20950322;28;20379;-66
2022/04/16 19:07:02;;;;;;;4.97;2.45;;;;;;;11.49;31.78;101679.84;20948067;28;20477;-68
2022/04/16 19:17:04;;;;;;;4.57;1.88;;;;;;;11.29;32.00;101692.03;20949130;28;20114;-68
2022/04/16 19:27:05;;;;;;;3.38;1.80;;;;;;;11.15;32.25;101696.38;20949153;28;20036;-66
2022/04/16 19:37:07;;;;;;;5.63;2.22;;;;;;;11.09;32.70;101705.09;20947049;28;20056;-67
2022/04/16 19:47:09;;;;;;;5.72;3.17;;;;;;;11.04;33.28;101712.94;20947242;28;20056;-68
2022/04/16 19:57:10;;;;;;;4.88;2.50;;;;;;;10.78;33.70;101727.72;20946609;28;20057;-67
2022/04/16 20:07:13;;;;;;;4.85;2.20;;;;;;;10.68;34.00;101716.31;20946141;28;20053;-67
2022/04/16 20:17:14;;;;;;;7.65;3.30;;;;;;;10.47;34.77;101721.41;20944057;28;20402;-66
2022/04/16 20:27:18;;;;;;;4.32;1.90;;;;;;;10.30;34.92;101716.09;20956258;28;20056;-67
2022/04/16 20:37:19;;;;;;;4.78;2.20;;;;;;;10.18;35.34;101724.69;20963009;28;20757;-67
2022/04/16 20:47:21;;;;;;;4.57;2.20;;;;;;;10.07;35.61;101720.25;20961014;28;20078;-67
2022/04/16 20:57:22;;;;;;;5.53;2.72;;;;;;;9.90;36.44;101726.22;20959777;28;20067;-67
2022/04/16 21:07:23;;;;;;;7.25;2.08;;;;;;;9.77;36.83;101721.72;20959223;28;20052;-67
2022/04/16 21:17:25;;;;;;;8.77;2.72;;;;;;;9.58;38.81;101714.59;20969175;28;20049;-68
2022/04/16 21:27:27;;;;;;;5.82;2.35;;;;;;;9.47;39.38;101711.88;20978309;28;20036;-67
2022/04/16 21:37:28;;;;;;;3.40;1.65;;;;;;;9.18;40.34;101720.28;20976988;28;20059;-68
2022/04/16 21:47:30;;;;;;;6.88;1.95;;;;;;;9.09;40.76;101729.75;20977461;28;20059;-67
2022/04/16 21:57:32;;;;;;;6.28;2.10;;;;;;;8.89;41.57;101733.00;20977499;28;20448;-67
2022/04/16 22:07:34;;;;;;;6.25;2.22;;;;;;;8.83;42.38;101745.13;20979315;28;20040;-67
2022/04/16 22:17:36;;;;;;;4.82;1.80;;;;;;;8.58;43.63;101749.16;20979021;28;20512;-66
2022/04/16 22:27:38;;;;;;;5.10;2.25;;;;;;;8.38;44.77;101751.44;20977982;28;20101;-66
2022/04/16 22:48:02;;;;;;;4.70;1.80;;;;;;;8.07;46.66;101748.34;20974698;28;20044;-66
2022/04/16 22:58:07;;;;;;;4.33;1.90;;;;;;;7.81;47.97;101750.53;20975803;28;20301;-66
2022/04/16 23:08:10;;;;;;;4.50;2.00;;;;;;;7.71;48.95;101759.91;20971936;28;20052;-66
2022/04/16 23:18:11;;;;;;;3.75;2.08;;;;;;;7.57;50.46;101750.06;20974498;28;20093;-66
2022/04/16 23:28:13;;;;;;;6.50;2.38;;;;;;;7.37;51.59;101767.94;20974000;28;20448;-67
2022/04/16 23:38:17;;;;;;;6.20;2.67;;;;;;;7.26;52.45;101749.50;20972320;28;20048;-67
2022/04/16 23:48:19;;;;;;;5.00;2.42;;;;;;;7.11;53.93;101739.66;20972497;28;20454;-66
2022/04/16 23:58:22;;;;;;;5.45;2.30;;;;;;;7.04;54.77;101731.69;20970674;28;20094;-66
